• Join FlightAware (Why Join?)
  • Login
  • US Flag 
03:06AM EDT


 

Airport Tracker/Info


-or-


 

Live Flight TrackerFlight Track Log ✈ SWA2353 ✈ 02-May-2013 ✈ KSTL - KBWI

Flight Track Log - Related Links

Times and Time Zones

All times are in EDT time to prevent confusion due to time zone crossing. See the SWA2353 flight status page for this flight to view local times or setup timezone preferences in your user account.

Time Position Orientation Groundspeed Altitude Reporting Facility
EDT Latitude Longitude Course Direction KTS MPH feet Rate Location/Type
11:07PM 38.7919 -90.3872 339° North 267 307 3,700  Level Kansas City Center
11:08PM 38.8372 -90.3558 28° Northeast 228 262 6,800 2,820 Climbing Kansas City Center
11:09PM 38.8314 -90.2700 95° East 243 280 9,500 3,240 Climbing Kansas City Center
11:10PM 38.8267 -90.1708 93° East 270 311 13,500 3,420 Climbing Kansas City Center
11:11PM 38.8206 -90.0503 94° East 322 371 16,500 3,000 Climbing Kansas City Center
11:12PM 38.8139 -89.9236 94° East 355 409 19,700 3,180 Climbing Kansas City Center
11:13PM 38.8067 -89.7856 94° East 379 436 23,000 3,420 Climbing Kansas City Center
11:14PM 38.7981 -89.6200 94° East 393 452 26,700 2,580 Climbing Kansas City Center
11:16PM 38.8231 -89.3172 84° East 442 509 31,000 1,980 Climbing Kansas City Center
11:18PM 38.8547 -89.1428 77° East 463 533 32,800 1,920 Climbing Kansas City Center
11:19PM 38.8844 -88.9747 77° East 480 552 35,000 2,520 Climbing Kansas City Center
11:20PM 38.9147 -88.8247 75° East 475 547 38,000 2,700 Climbing Kansas City Center
11:21PM 38.9400 -88.6739 78° East 444 511 40,500 1,440 Climbing Kansas City Center
11:22PM 38.9700 -88.5044 77° East 433 498 41,000 240 Climbing Kansas City Center
11:23PM 38.9964 -88.3444 78° East 448 516 41,000  Level Kansas City Center
11:24PM 39.0153 -88.2206 79° East 451 519 41,000  Level Indianapolis Center
11:25PM 39.0422 -88.0603 78° East 455 524 41,000  Level Indianapolis Center
11:26PM 39.0694 -87.9011 78° East 453 521 41,000  Level Indianapolis Center
11:27PM 39.0953 -87.7428 78° East 451 519 41,000  Level Indianapolis Center
11:28PM 39.1219 -87.5819 78° East 446 513 41,000  Level Indianapolis Center
11:29PM 39.1511 -87.3972 78° East 442 509 41,000  Level Indianapolis Center
11:30PM 39.1764 -87.2444 78° East 440 506 41,000  Level Indianapolis Center
11:31PM 39.2006 -87.0911 78° East 439 505 41,000  Level Indianapolis Center
11:32PM 39.2242 -86.9369 79° East 440 506 41,000  Level Indianapolis Center
11:33PM 39.2492 -86.7836 78° East 441 507 41,000  Level Indianapolis Center
11:34PM 39.2731 -86.6281 79° East 445 512 41,000  Level Indianapolis Center
11:35PM 39.2975 -86.4747 78° East 442 509 41,000  Level Indianapolis Center
11:36PM 39.3200 -86.3186 79° East 446 513 41,000  Level Indianapolis Center
11:37PM 39.3478 -86.1303 79° East 453 521 41,000  Level Indianapolis Center
11:38PM 39.3717 -85.9756 79° East 447 514 41,000  Level Indianapolis Center
11:39PM 39.3953 -85.8183 79° East 449 517 41,000  Level Indianapolis Center
11:40PM 39.4175 -85.6594 80° East 454 522 41,000  Level Indianapolis Center
11:41PM 39.4414 -85.5000 79° East 455 524 41,000  Level Indianapolis Center
11:42PM 39.4639 -85.3383 80° East 458 527 41,000  Level Indianapolis Center
11:43PM 39.4867 -85.1781 80° East 457 526 41,000  Level Indianapolis Center
11:44PM 39.4958 -85.0172 86° East 452 520 41,000 -480 Level Indianapolis Center
11:45PM 39.5039 -84.8547 86° East 447 514 40,100 -840 Descending Indianapolis Center
11:46PM 39.5111 -84.6958 87° East 439 505 39,300 -600 Descending Indianapolis Center
11:47PM 39.5206 -84.5386 85° East 437 503 39,000 -180 Descending Indianapolis Center
11:48PM 39.5267 -84.3819 87° East 434 499 39,000  Level Indianapolis Center
11:49PM 39.5361 -84.1981 86° East 438 504 39,000  Level Indianapolis Center
11:50PM 39.5436 -84.0408 86° East 435 501 39,000  Level Indianapolis Center
11:51PM 39.5508 -83.8842 87° East 434 499 39,000  Level Indianapolis Center
11:52PM 39.5569 -83.7258 87° East 438 504 39,000  Level Indianapolis Center
11:53PM 39.5636 -83.5675 87° East 440 506 39,000  Level Indianapolis Center
11:54PM 39.5703 -83.4106 87° East 438 504 39,000  Level Indianapolis Center
11:55PM 39.5761 -83.2528 87° East 439 505 39,000  Level Indianapolis Center
11:56PM 39.5817 -83.0964 87° East 435 501 39,000  Level Indianapolis Center
11:57PM 39.5881 -82.9400 87° East 433 498 39,000  Level Indianapolis Center
11:58PM 39.5942 -82.7833 87° East 433 498 39,000  Level Indianapolis Center
11:59PM 39.5983 -82.6261 88° East 433 498 39,000  Level Indianapolis Center
12:00AM 39.6039 -82.4692 87° East 434 499 39,000  Level Indianapolis Center
12:01AM 39.6081 -82.3108 88° East 436 502 39,000  Level Indianapolis Center
12:02AM 39.6136 -82.1528 87° East 435 501 39,000  Level Indianapolis Center
12:03AM 39.6181 -81.9794 88° East 435 501 39,000  Level Indianapolis Center
12:04AM 39.6217 -81.8222 88° East 435 501 39,000  Level Indianapolis Center
12:05AM 39.6261 -81.6653 88° East 435 501 39,000  Level Indianapolis Center
12:06AM 39.6297 -81.5078 88° East 436 502 39,000  Level Indianapolis Center
12:06AM 39.6342 -81.4725 81° East 438 504 39,000  Level Cleveland Center
12:07AM 39.6353 -81.3161 89° East 433 498 39,000  Level Cleveland Center
12:08AM 39.6281 -81.1625 93° East 428 493 39,000  Level Cleveland Center
12:09AM 39.6164 -81.0408 97° East 429 494 39,000 -420 Level Indianapolis Center
12:10AM 39.6081 -80.8847 94° East 431 496 38,300 -840 Descending Indianapolis Center
12:11AM 39.5986 -80.7264 94° East 438 504 37,400 -660 Descending Indianapolis Center
12:12AM 39.5881 -80.5706 95° East 434 499 37,000 -300 Descending Indianapolis Center
12:13AM 39.5878 -80.4711 90° East 446 513 37,000  Level Washington Center
12:14AM 39.5753 -80.3142 96° East 441 507 37,000  Level Washington Center
12:15AM 39.5667 -80.1600 94° East 441 507 37,000  Level Washington Center
12:16AM 39.5553 -80.0194 96° East 441 507 37,000  Level Washington Center
12:17AM 39.5442 -79.8625 95° East 441 507 37,000  Level Washington Center
12:18AM 39.5350 -79.7058 94° East 441 507 37,000  Level Washington Center
12:19AM 39.5217 -79.5464 96° East 441 507 37,000  Level Washington Center
12:20AM 39.5122 -79.3872 94° East 441 507 37,000 -180 Level Washington Center
12:21AM 39.4967 -79.2114 96° East 447 514 36,700 -1,620 Descending Washington Center
12:22AM 39.4847 -79.0522 96° East 442 509 33,900 -2,640 Descending Washington Center
12:23AM 39.4725 -78.8958 96° East 442 509 31,500 -2,400 Descending Washington Center
12:24AM 39.4600 -78.7447 96° East 437 503 29,100 -2,340 Descending Washington Center
12:25AM 39.4469 -78.5989 97° East 425 489 26,900 -2,280 Descending Washington Center
12:26AM 39.4378 -78.4589 95° East 407 468 24,700 -2,220 Descending Washington Center
12:27AM 39.4244 -78.3186 97° East 395 455 22,600 -2,100 Descending Washington Center
12:28AM 39.4147 -78.1892 96° East 382 440 20,600 -2,040 Descending Washington Center
12:29AM 39.4028 -78.0625 97° East 365 420 18,600 -2,040 Descending Washington Center
12:30AM 39.3928 -77.9386 96° East 359 413 16,600 -1,860 Descending Washington Center
12:31AM 39.3889 -77.8178 92° East 351 404 15,000 -1,020 Descending Washington Center
12:32AM 39.3906 -77.7292 89° East 331 381 14,600 -900 Descending Washington Center
12:33AM 39.3800 -77.6186 97° East 301 346 13,200 -1,440 Descending Washington Center
12:33AM 39.3667 -77.5667 108° East 279 321 12,500 -1,440 Descending Potomac TRACON
12:34AM 39.3667 -77.4500 90° East 275 316 11,100 -1,680 Descending Potomac TRACON
12:35AM 39.3500 -77.3667 104° East 275 316 9,200 -1,740 Descending Potomac TRACON
12:36AM 39.3333 -77.2500 100° East 267 307 7,500 -1,440 Descending Potomac TRACON
12:37AM 39.3333 -77.1667 90° East 253 291 6,200 -1,380 Descending Potomac TRACON
12:38AM 39.3167 -77.0833 104° East 252 290 4,800 -1,380 Descending Potomac TRACON
12:40AM 39.3167 -76.9833 90° East 238 274 3,300 -1,020 Descending Potomac TRACON
12:41AM 39.3000 -76.8833 102° East 214 246 2,500 -420 Descending Potomac TRACON
12:42AM 39.2833 -76.8167 108° East 213 245 2,500  Level Potomac TRACON
12:43AM 39.2667 -76.7500 108° East 211 243 2,500 -600 Level Potomac TRACON
12:44AM 39.2333 -76.7167 142° Southeast 148 170 1,400 -900 Descending Potomac TRACON
12:45AM 39.2000 -76.7000 159° South 123 142 700 -720 Descending Potomac TRACON
12:47AM 39.1754 -76.6683 142° Southeast  Level Estimated
12:54AM 39.1754 -76.6683 142° Southeast  Level Estimated
12:55AM 39.1754 -76.6683 142° Southeast  Level Estimated
12:56AM 39.1754 -76.6683 142° Southeast  Level Estimated
12:57AM 39.1754 -76.6683 142° Southeast  Level Estimated
12:58AM 39.1754 -76.6683 142° Southeast  Level Estimated
12:59AM 39.1754 -76.6683 142° Southeast  Level Estimated